createdAt,value
2022-11-16T00:00:21.062Z,977.42
2022-11-16T00:01:22.844Z,977.41
2022-11-16T00:02:24.611Z,977.38
2022-11-16T00:03:26.339Z,977.35
2022-11-16T00:04:28.042Z,977.36
2022-11-16T00:05:29.749Z,977.36
2022-11-16T00:06:31.518Z,977.34
2022-11-16T00:07:33.289Z,977.39
2022-11-16T00:08:35.262Z,977.3
2022-11-16T00:09:36.672Z,977.31
2022-11-16T00:10:38.421Z,977.31
2022-11-16T00:11:40.139Z,977.35
2022-11-16T00:12:41.914Z,977.31
2022-11-16T00:13:43.653Z,977.32
2022-11-16T00:14:45.400Z,977.3
2022-11-16T00:15:47.090Z,977.34
2022-11-16T00:16:48.827Z,977.31
2022-11-16T00:17:50.606Z,977.34
2022-11-16T00:18:52.289Z,977.31
2022-11-16T00:19:54.024Z,977.26
2022-11-16T00:20:55.800Z,977.3
2022-11-16T00:21:57.509Z,977.26
2022-11-16T00:22:59.228Z,977.19
2022-11-16T00:24:00.949Z,977.2
2022-11-16T00:25:02.750Z,977.14
2022-11-16T00:26:04.471Z,977.15
2022-11-16T00:27:06.164Z,977.13
2022-11-16T00:28:07.929Z,977.14
2022-11-16T00:29:09.632Z,977.09
2022-11-16T00:30:11.363Z,977.08
2022-11-16T00:31:13.100Z,977.07
2022-11-16T00:32:14.836Z,977.09
2022-11-16T00:33:16.573Z,977.07
2022-11-16T00:34:18.363Z,977.03
2022-11-16T00:35:20.048Z,977.07
2022-11-16T00:36:21.765Z,977.04
2022-11-16T00:37:23.502Z,977.04
2022-11-16T00:38:25.231Z,977.02
2022-11-16T00:39:26.970Z,977.06
2022-11-16T00:40:28.694Z,977.02
2022-11-16T00:41:30.429Z,976.99
2022-11-16T00:42:32.217Z,977.06
2022-11-16T00:43:33.898Z,977.01
2022-11-16T00:44:35.680Z,976.99
2022-11-16T00:45:37.392Z,976.99
2022-11-16T00:46:39.106Z,976.96
2022-11-16T00:47:40.912Z,976.99
2022-11-16T00:48:42.573Z,976.97
2022-11-16T00:49:44.327Z,977.06
2022-11-16T00:50:46.037Z,977.07
2022-11-16T00:51:47.773Z,977.02
2022-11-16T00:52:49.566Z,977.02
2022-11-16T00:53:51.242Z,977.02
2022-11-16T00:54:53.022Z,977
2022-11-16T00:55:54.764Z,977.04
2022-11-16T00:56:56.460Z,977.06
2022-11-16T00:57:58.186Z,977.05
2022-11-16T00:58:59.919Z,977.04
2022-11-16T01:00:01.681Z,977.03
2022-11-16T01:01:03.492Z,977.05
2022-11-16T01:02:05.125Z,977.07
2022-11-16T01:03:06.850Z,977.07
2022-11-16T01:04:08.588Z,977.03
2022-11-16T01:05:10.333Z,976.97
2022-11-16T01:06:12.078Z,976.94
2022-11-16T01:07:13.903Z,977
2022-11-16T01:08:15.530Z,976.97
2022-11-16T01:09:17.302Z,976.97
2022-11-16T01:10:19.036Z,976.92
2022-11-16T01:11:20.739Z,976.94
2022-11-16T01:12:22.545Z,976.92
2022-11-16T01:13:24.226Z,976.94
2022-11-16T01:14:25.963Z,976.89
2022-11-16T01:15:27.727Z,976.93
2022-11-16T01:16:29.402Z,976.9
2022-11-16T01:17:31.149Z,976.92
2022-11-16T01:18:33.276Z,976.91
2022-11-16T01:19:34.600Z,976.9
2022-11-16T01:20:36.337Z,976.85
2022-11-16T01:21:38.074Z,976.87
2022-11-16T01:22:42.863Z,976.87
2022-11-16T01:23:46.695Z,976.85
2022-11-16T01:24:53.583Z,976.85
2022-11-16T01:25:55.341Z,976.85
2022-11-16T01:26:57.053Z,976.83
2022-11-16T01:27:58.787Z,976.81
2022-11-16T01:29:00.554Z,976.83
2022-11-16T01:30:02.255Z,976.81
2022-11-16T01:31:04.000Z,976.82
2022-11-16T01:32:05.779Z,976.79
2022-11-16T01:33:07.462Z,976.82
2022-11-16T01:34:09.245Z,976.81
2022-11-16T01:35:10.927Z,976.77
2022-11-16T01:36:12.663Z,976.77
2022-11-16T01:37:14.395Z,976.74
2022-11-16T01:38:16.132Z,976.71
2022-11-16T01:39:17.858Z,976.71
2022-11-16T01:40:19.635Z,976.75
2022-11-16T01:41:21.321Z,976.74
2022-11-16T01:42:23.064Z,976.69
2022-11-16T01:43:24.795Z,976.68
2022-11-16T01:44:26.539Z,976.71
2022-11-16T01:45:28.272Z,976.75
2022-11-16T01:46:30.019Z,976.74
2022-11-16T01:47:31.778Z,976.7
2022-11-16T01:48:33.976Z,976.67
2022-11-16T01:49:35.189Z,976.71
2022-11-16T01:50:36.979Z,976.67
2022-11-16T01:51:38.667Z,976.69
2022-11-16T01:52:40.409Z,976.65
2022-11-16T01:53:42.149Z,976.61
2022-11-16T01:54:43.915Z,976.6
2022-11-16T01:55:45.603Z,976.56
2022-11-16T01:56:47.379Z,976.6
2022-11-16T01:57:49.117Z,976.53
2022-11-16T01:58:50.803Z,976.56
2022-11-16T01:59:52.569Z,976.51
2022-11-16T02:00:54.368Z,976.56
2022-11-16T02:01:56.097Z,976.59
2022-11-16T02:02:57.790Z,976.55
2022-11-16T02:03:59.469Z,976.48
2022-11-16T02:05:01.222Z,976.49
2022-11-16T02:06:02.958Z,976.47
2022-11-16T02:07:04.790Z,976.45
2022-11-16T02:08:06.429Z,976.5
2022-11-16T02:09:08.149Z,976.53
2022-11-16T02:10:09.897Z,976.58
2022-11-16T02:11:11.679Z,976.59
2022-11-16T02:12:13.333Z,976.55
2022-11-16T02:13:15.074Z,976.56
2022-11-16T02:14:16.812Z,976.56
2022-11-16T02:15:18.555Z,976.52
2022-11-16T02:16:20.275Z,976.57
2022-11-16T02:17:22.048Z,976.62
2022-11-16T02:18:23.740Z,976.54
2022-11-16T02:19:25.493Z,976.55
2022-11-16T02:20:27.252Z,976.52
2022-11-16T02:21:28.976Z,976.53
2022-11-16T02:22:30.728Z,976.46
2022-11-16T02:23:32.406Z,976.49
2022-11-16T02:24:34.248Z,976.51
2022-11-16T02:25:35.924Z,976.52
2022-11-16T02:26:37.612Z,976.56
2022-11-16T02:27:39.356Z,976.54
2022-11-16T02:28:41.075Z,976.53
2022-11-16T02:29:42.829Z,976.53
2022-11-16T02:30:44.589Z,976.53
2022-11-16T02:31:46.299Z,976.5
2022-11-16T02:32:48.063Z,976.53
2022-11-16T02:33:49.810Z,976.5
2022-11-16T02:34:51.499Z,976.51
2022-11-16T02:35:53.277Z,976.51
2022-11-16T02:36:54.996Z,976.48
2022-11-16T02:37:56.716Z,976.45
2022-11-16T02:38:58.437Z,976.49
2022-11-16T02:40:00.242Z,976.54
2022-11-16T02:41:01.952Z,976.53
2022-11-16T02:42:03.639Z,976.54
2022-11-16T02:43:05.361Z,976.53
2022-11-16T02:44:07.092Z,976.47
2022-11-16T02:45:08.856Z,976.52
2022-11-16T02:46:10.546Z,976.53
2022-11-16T02:47:12.289Z,976.51
2022-11-16T02:48:14.054Z,976.54
2022-11-16T02:49:15.776Z,976.52
2022-11-16T02:50:17.504Z,976.55
2022-11-16T02:51:19.259Z,976.54
2022-11-16T02:52:20.990Z,976.55
2022-11-16T02:53:22.694Z,976.55
2022-11-16T02:54:24.457Z,976.57
2022-11-16T02:55:26.201Z,976.55
2022-11-16T02:56:27.986Z,976.55
2022-11-16T02:57:29.640Z,976.54
2022-11-16T02:58:31.722Z,976.54
2022-11-16T02:59:33.155Z,976.5
2022-11-16T03:00:34.993Z,976.5
2022-11-16T03:01:36.602Z,976.45
2022-11-16T03:02:38.309Z,976.49
2022-11-16T03:03:40.033Z,976.52
2022-11-16T03:04:41.787Z,976.48
2022-11-16T03:05:43.539Z,976.47
2022-11-16T03:06:45.248Z,976.44
2022-11-16T03:07:46.988Z,976.44
2022-11-16T03:08:48.750Z,976.44
2022-11-16T03:09:50.480Z,976.42
2022-11-16T03:10:52.232Z,976.43
2022-11-16T03:11:53.921Z,976.38
2022-11-16T03:12:55.701Z,976.38
2022-11-16T03:13:57.396Z,976.35
2022-11-16T03:14:59.150Z,976.34
2022-11-16T03:16:00.868Z,976.31
2022-11-16T03:17:02.634Z,976.31
2022-11-16T03:18:04.336Z,976.27
2022-11-16T03:19:06.063Z,976.33
2022-11-16T03:20:07.788Z,976.3
2022-11-16T03:21:09.518Z,976.27
2022-11-16T03:22:12.258Z,976.24
2022-11-16T03:23:13.022Z,976.17
2022-11-16T03:24:14.721Z,976.2
2022-11-16T03:25:16.504Z,976.18
2022-11-16T03:26:18.187Z,976.11
2022-11-16T03:27:19.942Z,976.09
2022-11-16T03:28:21.694Z,976.1
2022-11-16T03:29:23.402Z,975.98
2022-11-16T03:30:25.143Z,975.98
2022-11-16T03:31:26.872Z,976.04
2022-11-16T03:32:28.613Z,976.04
2022-11-16T03:33:30.351Z,976.13
2022-11-16T03:34:32.097Z,976.14
2022-11-16T03:35:33.865Z,976.17
2022-11-16T03:36:35.584Z,976.19
2022-11-16T03:37:37.294Z,976.24
2022-11-16T03:38:39.022Z,976.33
2022-11-16T03:39:40.768Z,976.4
2022-11-16T03:40:42.483Z,976.42
2022-11-16T03:41:44.219Z,976.51
2022-11-16T03:42:45.958Z,976.52
2022-11-16T03:43:47.690Z,976.5
2022-11-16T03:44:49.645Z,976.53
2022-11-16T03:45:51.178Z,976.57
2022-11-16T03:46:52.875Z,976.57
2022-11-16T03:47:54.659Z,976.55
2022-11-16T03:48:56.351Z,976.58
2022-11-16T03:49:58.109Z,976.57
2022-11-16T03:50:59.826Z,976.52
2022-11-16T03:52:01.576Z,976.57
2022-11-16T03:53:03.312Z,976.52
2022-11-16T03:54:05.017Z,976.43
2022-11-16T03:55:06.789Z,976.41
2022-11-16T03:56:08.517Z,976.34
2022-11-16T03:57:10.239Z,976.37
2022-11-16T03:58:11.958Z,976.44
2022-11-16T03:59:13.766Z,976.5
2022-11-16T04:00:15.451Z,976.54
2022-11-16T04:01:17.186Z,976.59
2022-11-16T04:02:18.884Z,976.65
2022-11-16T04:03:20.607Z,976.64
2022-11-16T04:04:22.349Z,976.66
2022-11-16T04:05:24.120Z,976.64
2022-11-16T04:06:25.825Z,976.58
2022-11-16T04:07:27.622Z,976.63
2022-11-16T04:08:29.307Z,976.67
2022-11-16T04:09:31.033Z,976.69
2022-11-16T04:10:32.779Z,976.73
2022-11-16T04:11:34.490Z,976.75
2022-11-16T04:12:36.258Z,976.79
2022-11-16T04:13:37.962Z,976.76
2022-11-16T04:14:39.704Z,976.77
2022-11-16T04:15:41.435Z,976.79
2022-11-16T04:16:43.178Z,976.75
2022-11-16T04:17:44.876Z,976.74
2022-11-16T04:18:46.623Z,976.76
2022-11-16T04:19:48.378Z,976.76
2022-11-16T04:20:50.128Z,976.77
2022-11-16T04:21:51.820Z,976.77
2022-11-16T04:22:53.565Z,976.74
2022-11-16T04:23:55.317Z,976.74
2022-11-16T04:24:57.019Z,976.77
2022-11-16T04:25:58.758Z,976.77
2022-11-16T04:27:00.535Z,976.81
2022-11-16T04:28:02.283Z,976.77
2022-11-16T04:29:03.999Z,976.75
2022-11-16T04:30:05.700Z,976.73
2022-11-16T04:31:07.451Z,976.7
2022-11-16T04:32:09.157Z,976.75
2022-11-16T04:33:10.895Z,976.75
2022-11-16T04:34:12.729Z,976.78
2022-11-16T04:35:14.369Z,976.76
2022-11-16T04:36:20.466Z,976.74
2022-11-16T04:37:17.860Z,976.72
2022-11-16T04:38:19.580Z,976.73
2022-11-16T04:39:21.355Z,976.72
2022-11-16T04:40:23.033Z,976.73
2022-11-16T04:41:24.799Z,976.76
2022-11-16T04:42:26.514Z,976.73
2022-11-16T04:43:28.215Z,976.75
2022-11-16T04:44:30.144Z,976.8
2022-11-16T04:45:31.692Z,976.71
2022-11-16T04:46:33.437Z,976.73
2022-11-16T04:47:35.188Z,976.73
2022-11-16T04:48:37.156Z,976.73
2022-11-16T04:49:38.627Z,976.76
2022-11-16T04:50:40.391Z,976.78
2022-11-16T04:51:42.181Z,976.81
2022-11-16T04:52:43.838Z,976.8
2022-11-16T04:53:45.604Z,976.81
2022-11-16T04:54:47.310Z,976.82
2022-11-16T04:55:49.063Z,976.78
2022-11-16T04:56:50.802Z,976.82
2022-11-16T04:57:52.519Z,976.84
2022-11-16T04:58:54.301Z,976.82
2022-11-16T04:59:56.012Z,976.81
2022-11-16T05:00:57.823Z,976.78
2022-11-16T05:01:59.552Z,976.77
2022-11-16T05:03:01.951Z,976.83
2022-11-16T05:04:02.935Z,976.79
2022-11-16T05:05:04.685Z,976.84
2022-11-16T05:06:06.404Z,976.82
2022-11-16T05:07:08.194Z,976.83
2022-11-16T05:08:09.887Z,976.86
2022-11-16T05:09:11.624Z,976.85
2022-11-16T05:10:13.355Z,976.83
2022-11-16T05:11:15.050Z,976.8
2022-11-16T05:12:16.795Z,976.8
2022-11-16T05:13:18.519Z,976.79
2022-11-16T05:14:20.294Z,976.83
2022-11-16T05:15:21.991Z,976.82
2022-11-16T05:16:34.107Z,976.84
2022-11-16T05:18:14.825Z,976.88
2022-11-16T05:19:16.533Z,976.91
2022-11-16T05:20:18.251Z,976.89
2022-11-16T05:21:19.983Z,976.92
2022-11-16T05:22:21.716Z,976.9
2022-11-16T05:23:23.469Z,976.83
2022-11-16T05:24:25.222Z,976.84
2022-11-16T05:25:26.913Z,976.85
2022-11-16T05:26:28.685Z,976.88
2022-11-16T05:27:34.425Z,976.87
2022-11-16T05:28:37.606Z,976.85
2022-11-16T05:29:39.023Z,976.87
2022-11-16T05:31:01.210Z,976.86
2022-11-16T05:32:04.329Z,976.83
2022-11-16T05:33:04.659Z,976.83
2022-11-16T05:34:06.369Z,976.85
2022-11-16T05:35:08.150Z,976.85
2022-11-16T05:36:09.892Z,976.84
2022-11-16T05:37:11.579Z,976.83
2022-11-16T05:38:13.305Z,976.86
2022-11-16T05:39:15.055Z,976.88
2022-11-16T05:40:16.800Z,976.88
2022-11-16T05:41:18.522Z,976.9
2022-11-16T05:42:20.265Z,976.93
2022-11-16T05:43:21.999Z,976.95
2022-11-16T05:44:23.717Z,976.9
2022-11-16T05:45:25.503Z,976.94
2022-11-16T05:46:27.219Z,976.99
2022-11-16T05:47:28.956Z,976.93
2022-11-16T05:48:30.868Z,976.97
2022-11-16T05:49:32.461Z,976.96
2022-11-16T05:50:36.323Z,976.98
2022-11-16T05:51:35.952Z,976.99
2022-11-16T05:52:37.650Z,976.97
2022-11-16T05:53:39.396Z,976.95
2022-11-16T05:54:41.088Z,976.91
2022-11-16T05:55:42.853Z,976.94
2022-11-16T05:56:44.568Z,976.94
2022-11-16T05:57:46.295Z,976.96
2022-11-16T05:58:48.068Z,976.99
2022-11-16T05:59:49.763Z,976.88
2022-11-16T06:00:51.526Z,976.88
2022-11-16T06:01:53.230Z,976.92
2022-11-16T06:02:55.064Z,976.9
2022-11-16T06:03:56.703Z,976.94
2022-11-16T06:04:58.431Z,976.94
2022-11-16T06:06:00.171Z,976.96
2022-11-16T06:07:01.983Z,977.01
2022-11-16T06:08:03.651Z,976.91
2022-11-16T06:09:05.407Z,977
2022-11-16T06:10:07.132Z,977.03
2022-11-16T06:11:08.843Z,977.02
2022-11-16T06:12:10.569Z,976.99
2022-11-16T06:13:12.309Z,977.03
2022-11-16T06:14:14.059Z,977.03
2022-11-16T06:15:15.777Z,977.04
2022-11-16T06:16:17.511Z,977.07
2022-11-16T06:17:19.236Z,977.1
2022-11-16T06:18:20.984Z,977.09
2022-11-16T06:19:22.752Z,977.1
2022-11-16T06:20:24.500Z,977.13
2022-11-16T06:21:26.178Z,977.16
2022-11-16T06:22:27.990Z,977.15
2022-11-16T06:23:29.641Z,977.21
2022-11-16T06:24:31.389Z,977.18
2022-11-16T06:25:33.150Z,977.2
2022-11-16T06:26:34.887Z,977.2
2022-11-16T06:27:36.626Z,977.18
2022-11-16T06:28:38.325Z,977.17
2022-11-16T06:29:40.046Z,977.19
2022-11-16T06:30:41.820Z,977.18
2022-11-16T06:31:43.572Z,977.24
2022-11-16T06:32:45.263Z,977.22
2022-11-16T06:33:47.030Z,977.23
2022-11-16T06:34:48.719Z,977.25
2022-11-16T06:35:50.461Z,977.25
2022-11-16T06:36:52.189Z,977.25
2022-11-16T06:37:54.019Z,977.27
2022-11-16T06:38:55.698Z,977.28
2022-11-16T06:39:57.399Z,977.25
2022-11-16T06:40:59.130Z,977.22
2022-11-16T06:42:00.956Z,977.22
2022-11-16T06:43:02.607Z,977.26
2022-11-16T06:44:04.374Z,977.3
2022-11-16T06:45:06.062Z,977.3
2022-11-16T06:46:07.799Z,977.32
2022-11-16T06:47:09.548Z,977.36
2022-11-16T06:48:11.330Z,977.39
2022-11-16T06:49:13.013Z,977.39
2022-11-16T06:50:15.394Z,977.4
2022-11-16T06:51:16.515Z,977.42
2022-11-16T06:52:18.249Z,977.37
2022-11-16T06:53:24.632Z,977.36
2022-11-16T06:54:21.737Z,977.39
2022-11-16T06:55:23.412Z,977.38
2022-11-16T06:56:25.166Z,977.4
2022-11-16T06:57:26.874Z,977.47
2022-11-16T06:58:28.613Z,977.45
2022-11-16T06:59:30.337Z,977.5
2022-11-16T07:00:32.110Z,977.53
2022-11-16T07:01:34.003Z,977.52
2022-11-16T07:02:35.555Z,977.53
2022-11-16T07:03:37.271Z,977.56
2022-11-16T07:04:39.061Z,977.56
2022-11-16T07:05:40.785Z,977.59
2022-11-16T07:06:42.513Z,977.59
2022-11-16T07:07:44.257Z,977.61
2022-11-16T07:08:45.991Z,977.6
2022-11-16T07:09:47.726Z,977.62
2022-11-16T07:10:49.446Z,977.63
2022-11-16T07:11:51.227Z,977.67
2022-11-16T07:12:52.945Z,977.67
2022-11-16T07:13:54.635Z,977.7
2022-11-16T07:14:56.358Z,977.7
2022-11-16T07:15:58.089Z,977.75
2022-11-16T07:17:02.872Z,977.73
2022-11-16T07:18:01.550Z,977.77
2022-11-16T07:19:03.283Z,977.78
2022-11-16T07:20:05.023Z,977.75
2022-11-16T07:21:06.795Z,977.81
2022-11-16T07:22:08.484Z,977.81
2022-11-16T07:23:14.182Z,977.83
2022-11-16T07:24:11.959Z,977.8
2022-11-16T07:25:13.725Z,977.76
2022-11-16T07:26:15.422Z,977.91
2022-11-16T07:27:17.147Z,977.87
2022-11-16T07:28:18.899Z,977.89
2022-11-16T07:29:20.624Z,977.91
2022-11-16T07:30:22.364Z,977.9
2022-11-16T07:31:24.099Z,977.88
2022-11-16T07:32:25.841Z,977.87
2022-11-16T07:33:27.572Z,977.91
2022-11-16T07:34:29.304Z,977.91
2022-11-16T07:35:31.061Z,977.97
2022-11-16T07:36:32.804Z,977.92
2022-11-16T07:37:34.514Z,977.95
2022-11-16T07:38:37.306Z,978.01
2022-11-16T07:39:39.935Z,978.03
2022-11-16T07:40:44.873Z,978.05
2022-11-16T07:41:46.551Z,978.03
2022-11-16T07:42:54.317Z,978.05
2022-11-16T07:43:55.222Z,978.01
2022-11-16T07:44:56.937Z,978.05
2022-11-16T07:46:20.059Z,978.07
2022-11-16T07:47:00.367Z,978.1
2022-11-16T07:48:03.450Z,978.09
2022-11-16T07:49:10.885Z,978.06
2022-11-16T07:50:06.756Z,977.99
2022-11-16T07:51:07.369Z,978.1
2022-11-16T07:52:09.104Z,978.12
2022-11-16T07:53:12.268Z,978.08
2022-11-16T07:54:12.532Z,978.14
2022-11-16T07:55:14.334Z,978.09
2022-11-16T07:56:15.996Z,978.17
2022-11-16T07:57:17.693Z,978.23
2022-11-16T07:58:19.437Z,978.22
2022-11-16T07:59:21.185Z,978.21
2022-11-16T08:00:22.955Z,978.22
2022-11-16T08:01:24.783Z,978.32
2022-11-16T08:02:26.456Z,978.29
2022-11-16T08:03:28.152Z,978.31
2022-11-16T08:04:29.884Z,978.33
2022-11-16T08:05:31.638Z,978.31
2022-11-16T08:06:33.347Z,978.29
2022-11-16T08:07:35.143Z,978.29
2022-11-16T08:08:37.125Z,978.35
2022-11-16T08:09:38.639Z,978.33
2022-11-16T08:10:40.312Z,978.33
2022-11-16T08:11:42.062Z,978.34
2022-11-16T08:12:43.781Z,978.3
2022-11-16T08:13:45.484Z,978.25
2022-11-16T08:14:47.298Z,978.34
2022-11-16T08:15:48.952Z,978.32
2022-11-16T08:16:50.733Z,978.32
2022-11-16T08:18:17.768Z,978.28
2022-11-16T08:19:19.509Z,978.28
2022-11-16T08:20:21.253Z,978.32
2022-11-16T08:21:22.977Z,978.28
2022-11-16T08:22:24.754Z,978.34
2022-11-16T08:23:26.485Z,978.33
2022-11-16T08:24:28.186Z,978.35
2022-11-16T08:25:29.911Z,978.34
2022-11-16T08:26:31.654Z,978.3
2022-11-16T08:27:33.388Z,978.28
2022-11-16T08:28:35.551Z,978.31
2022-11-16T08:29:36.849Z,978.35
2022-11-16T08:30:38.583Z,978.38
2022-11-16T08:31:40.317Z,978.38
2022-11-16T08:32:42.062Z,978.41
2022-11-16T08:33:43.798Z,978.39
2022-11-16T08:34:45.560Z,978.37
2022-11-16T08:35:47.299Z,978.38
2022-11-16T08:36:49.056Z,978.33
2022-11-16T08:37:50.719Z,978.32
2022-11-16T08:38:52.456Z,978.31
2022-11-16T08:39:54.230Z,978.33
2022-11-16T08:40:55.965Z,978.29
2022-11-16T08:41:57.657Z,978.32
2022-11-16T08:42:59.468Z,978.35
2022-11-16T08:44:01.374Z,978.4
2022-11-16T08:45:02.931Z,978.42
2022-11-16T08:46:04.601Z,978.44
2022-11-16T08:47:06.363Z,978.47
2022-11-16T08:48:08.101Z,978.5
2022-11-16T08:49:09.802Z,978.54
2022-11-16T08:50:11.573Z,978.54
2022-11-16T08:51:18.501Z,978.55
2022-11-16T08:52:15.034Z,978.57
2022-11-16T08:53:16.899Z,978.55
2022-11-16T08:54:18.476Z,978.49
2022-11-16T08:55:20.230Z,978.57
2022-11-16T08:56:21.936Z,978.58
2022-11-16T08:57:23.710Z,978.59
2022-11-16T08:58:25.435Z,978.57
2022-11-16T08:59:27.131Z,978.62
2022-11-16T09:00:28.911Z,978.59
2022-11-16T09:01:30.870Z,978.6
2022-11-16T09:02:32.355Z,978.64
2022-11-16T09:03:34.112Z,978.62
2022-11-16T09:04:37.367Z,978.62
2022-11-16T09:05:37.553Z,978.61
2022-11-16T09:06:39.281Z,978.66
2022-11-16T09:07:41.069Z,978.69
2022-11-16T09:08:42.742Z,978.69
2022-11-16T09:09:44.474Z,978.67
2022-11-16T09:10:46.345Z,978.68
2022-11-16T09:11:47.950Z,978.72
2022-11-16T09:12:49.812Z,978.66
2022-11-16T09:13:51.410Z,978.73
2022-11-16T09:14:53.174Z,978.68
2022-11-16T09:15:54.887Z,978.71
2022-11-16T09:16:56.552Z,978.72
2022-11-16T09:17:58.286Z,978.69
2022-11-16T09:19:00.030Z,978.66
2022-11-16T09:20:01.727Z,978.67
2022-11-16T09:21:03.466Z,978.68
2022-11-16T09:22:05.196Z,978.65
2022-11-16T09:23:06.995Z,978.62
2022-11-16T09:24:08.653Z,978.64
2022-11-16T09:25:10.385Z,978.6
2022-11-16T09:26:12.179Z,978.63
2022-11-16T09:27:13.889Z,978.62
2022-11-16T09:28:15.585Z,978.59
2022-11-16T09:29:17.363Z,978.62
2022-11-16T09:30:19.069Z,978.6
2022-11-16T09:31:23.553Z,978.53
2022-11-16T09:32:22.651Z,978.54
2022-11-16T09:33:24.289Z,978.56
2022-11-16T09:34:26.001Z,978.59
2022-11-16T09:35:27.772Z,978.58
2022-11-16T09:36:29.488Z,978.59
2022-11-16T09:37:31.313Z,978.55
2022-11-16T09:38:47.432Z,978.55
2022-11-16T09:39:34.658Z,978.58
2022-11-16T09:40:36.448Z,978.58
2022-11-16T09:41:38.210Z,978.61
2022-11-16T09:42:39.936Z,978.63
2022-11-16T09:43:45.872Z,978.59
2022-11-16T09:44:43.355Z,978.6
2022-11-16T09:45:45.080Z,978.66
2022-11-16T09:46:46.835Z,978.66
2022-11-16T09:47:48.579Z,978.69
2022-11-16T09:48:50.263Z,978.64
2022-11-16T09:49:52.021Z,978.68
2022-11-16T09:50:53.750Z,978.7
2022-11-16T09:51:55.481Z,978.68
2022-11-16T09:52:57.250Z,978.68
2022-11-16T09:53:59.012Z,978.7
2022-11-16T09:55:00.684Z,978.66
2022-11-16T09:56:02.428Z,978.75
2022-11-16T09:57:09.409Z,978.7
2022-11-16T09:58:05.904Z,978.72
2022-11-16T09:59:07.615Z,978.69
2022-11-16T10:00:09.451Z,978.69
2022-11-16T10:01:11.230Z,978.69
2022-11-16T10:02:12.858Z,978.77
2022-11-16T10:03:14.551Z,978.72
2022-11-16T10:04:16.354Z,978.75
2022-11-16T10:05:18.071Z,978.72
2022-11-16T10:06:19.782Z,978.78
2022-11-16T10:07:21.544Z,978.77
2022-11-16T10:08:23.238Z,978.77
2022-11-16T10:09:24.966Z,978.75
2022-11-16T10:10:26.700Z,978.73
2022-11-16T10:11:28.467Z,978.77
2022-11-16T10:12:30.193Z,978.74
2022-11-16T10:13:32.198Z,978.76
2022-11-16T10:14:33.687Z,978.71
2022-11-16T10:15:35.362Z,978.73
2022-11-16T10:16:37.110Z,978.75
2022-11-16T10:17:38.857Z,978.77
2022-11-16T10:18:40.601Z,978.75
2022-11-16T10:19:42.340Z,978.72
2022-11-16T10:20:44.044Z,978.7
2022-11-16T10:21:45.804Z,978.7
2022-11-16T10:22:47.549Z,978.68
2022-11-16T10:23:49.294Z,978.67
2022-11-16T10:24:50.984Z,978.67
2022-11-16T10:25:52.750Z,978.63
2022-11-16T10:26:54.435Z,978.66
2022-11-16T10:27:56.172Z,978.63
2022-11-16T10:28:57.916Z,978.63
2022-11-16T10:29:59.638Z,978.62
2022-11-16T10:31:01.377Z,978.61
2022-11-16T10:32:03.153Z,978.63
2022-11-16T10:33:09.817Z,978.6
2022-11-16T10:34:06.582Z,978.55
2022-11-16T10:35:08.314Z,978.55
2022-11-16T10:36:10.049Z,978.47
2022-11-16T10:37:11.798Z,978.43
2022-11-16T10:38:13.551Z,978.41
2022-11-16T10:39:15.267Z,978.33
2022-11-16T10:40:16.993Z,978.33
2022-11-16T10:41:18.738Z,978.35
2022-11-16T10:42:20.493Z,978.34
2022-11-16T10:43:22.222Z,978.3
2022-11-16T10:44:23.929Z,978.29
2022-11-16T10:45:25.670Z,978.28
2022-11-16T10:46:27.411Z,978.24
2022-11-16T10:47:33.571Z,978.26
2022-11-16T10:48:30.898Z,978.17
2022-11-16T10:49:32.626Z,978.21
2022-11-16T10:50:34.358Z,978.21
2022-11-16T10:51:36.054Z,978.17
2022-11-16T10:52:37.808Z,978.21
2022-11-16T10:53:39.539Z,978.25
2022-11-16T10:54:44.217Z,978.22
2022-11-16T10:55:43.043Z,978.17
2022-11-16T10:56:44.729Z,978.21
2022-11-16T10:57:46.470Z,978.22
2022-11-16T10:58:48.210Z,978.19
2022-11-16T10:59:49.950Z,978.2
2022-11-16T11:00:52.001Z,978.21
2022-11-16T11:01:53.454Z,978.19
2022-11-16T11:02:55.231Z,978.17
2022-11-16T11:03:57.028Z,978.18
2022-11-16T11:04:58.647Z,978.13
2022-11-16T11:06:00.384Z,978.17
2022-11-16T11:07:02.123Z,978.16
2022-11-16T11:08:03.816Z,978.21
2022-11-16T11:09:05.574Z,978.24
2022-11-16T11:10:07.286Z,978.21
2022-11-16T11:11:09.091Z,978.21
2022-11-16T11:12:10.795Z,978.16
2022-11-16T11:13:12.475Z,978.19
2022-11-16T11:14:14.223Z,978.2
2022-11-16T11:15:16.822Z,978.19
2022-11-16T11:16:17.725Z,978.22
2022-11-16T11:17:19.417Z,978.18
2022-11-16T11:18:21.209Z,978.17
2022-11-16T11:19:22.929Z,978.17
2022-11-16T11:20:24.631Z,978.21
2022-11-16T11:21:26.386Z,978.24
2022-11-16T11:22:28.098Z,978.21
2022-11-16T11:23:29.844Z,978.2
2022-11-16T11:24:45.722Z,978.24
2022-11-16T11:25:33.297Z,978.24
2022-11-16T11:26:37.264Z,978.17
2022-11-16T11:27:36.831Z,978.2
2022-11-16T11:28:38.534Z,978.22
2022-11-16T11:29:40.225Z,978.16
2022-11-16T11:30:42.016Z,978.22
2022-11-16T11:31:43.707Z,978.27
2022-11-16T11:32:45.463Z,978.24
2022-11-16T11:33:47.168Z,978.21
2022-11-16T11:34:48.933Z,978.18
2022-11-16T11:35:50.666Z,978.19
2022-11-16T11:36:52.370Z,978.18
2022-11-16T11:37:54.209Z,978.18
2022-11-16T11:38:55.931Z,978.17
2022-11-16T11:39:57.608Z,978.15
2022-11-16T11:40:59.368Z,978.12
2022-11-16T11:42:01.085Z,978.15
2022-11-16T11:43:02.822Z,978.13
2022-11-16T11:44:04.561Z,978.07
2022-11-16T11:45:06.259Z,978
2022-11-16T11:46:08.002Z,978.05
2022-11-16T11:48:11.482Z,977.98
2022-11-16T11:49:13.171Z,977.99
2022-11-16T11:50:14.989Z,977.95
2022-11-16T11:51:16.651Z,977.96
2022-11-16T11:52:18.392Z,977.97
2022-11-16T11:53:20.145Z,977.93
2022-11-16T11:54:21.846Z,977.9
2022-11-16T11:55:23.628Z,977.94
2022-11-16T11:56:25.356Z,977.94
2022-11-16T11:57:27.071Z,977.91
2022-11-16T11:58:28.836Z,977.91
2022-11-16T11:59:30.525Z,977.87
2022-11-16T12:00:32.282Z,977.89
2022-11-16T12:01:34.051Z,977.87
2022-11-16T12:02:36.811Z,977.9
2022-11-16T12:03:37.635Z,977.91
2022-11-16T12:04:39.196Z,977.89
2022-11-16T12:05:40.986Z,977.89
2022-11-16T12:06:43.873Z,977.93
2022-11-16T12:07:44.411Z,977.93
2022-11-16T12:08:46.139Z,977.87
2022-11-16T12:09:47.886Z,977.81
2022-11-16T12:10:49.613Z,977.83
2022-11-16T12:11:51.340Z,977.85
2022-11-16T12:12:53.110Z,977.73
2022-11-16T12:13:54.806Z,977.79
2022-11-16T12:14:56.542Z,977.79
2022-11-16T12:15:58.317Z,977.77
2022-11-16T12:17:00.102Z,977.72
2022-11-16T12:18:01.738Z,977.67
2022-11-16T12:19:03.500Z,977.71
2022-11-16T12:20:05.297Z,977.69
2022-11-16T12:21:06.978Z,977.66
2022-11-16T12:22:08.690Z,977.68
2022-11-16T12:23:10.423Z,977.67
2022-11-16T12:24:12.153Z,977.62
2022-11-16T12:25:13.886Z,977.53
2022-11-16T12:26:15.661Z,977.59
2022-11-16T12:27:17.386Z,977.57
2022-11-16T12:28:19.107Z,977.55
2022-11-16T12:29:20.854Z,977.55
2022-11-16T12:30:22.723Z,977.48
2022-11-16T12:31:24.317Z,977.48
2022-11-16T12:32:26.034Z,977.53
2022-11-16T12:33:27.778Z,977.55
2022-11-16T12:34:29.497Z,977.51
2022-11-16T12:35:31.235Z,977.46
2022-11-16T12:36:32.982Z,977.5
2022-11-16T12:37:34.762Z,977.46
2022-11-16T12:38:36.450Z,977.51
2022-11-16T12:39:38.170Z,977.46
2022-11-16T12:40:39.924Z,977.52
2022-11-16T12:41:41.649Z,977.46
2022-11-16T12:42:43.407Z,977.48
2022-11-16T12:43:45.119Z,977.48
2022-11-16T12:44:46.856Z,977.43
2022-11-16T12:45:48.575Z,977.44
2022-11-16T12:46:50.322Z,977.45
2022-11-16T12:47:52.060Z,977.39
2022-11-16T12:48:53.835Z,977.36
2022-11-16T12:49:55.533Z,977.46
2022-11-16T12:50:57.282Z,977.42
2022-11-16T12:51:59.050Z,977.44
2022-11-16T12:53:00.945Z,977.42
2022-11-16T12:54:02.511Z,977.41
2022-11-16T12:55:31.844Z,977.35